createdAt,value
2023-01-19T21:27:29.367Z,38.84
2023-01-19T21:29:55.784Z,36.54
2023-01-19T21:32:22.183Z,34.87
2023-01-19T21:34:48.611Z,34.58
2023-01-19T21:37:14.990Z,32.83
2023-01-19T21:39:41.432Z,31.96
2023-01-19T21:42:07.828Z,31.43
2023-01-19T21:44:34.210Z,31.18
2023-01-19T21:47:00.625Z,30.25
2023-01-19T21:49:27.026Z,29.20
2023-01-19T21:51:53.408Z,28.57
2023-01-19T21:54:19.804Z,28.10
2023-01-19T21:56:46.180Z,26.54
2023-01-19T21:59:12.570Z,26.52
2023-01-19T22:01:39.079Z,26.53
2023-01-19T22:04:05.486Z,24.91
2023-01-19T22:06:31.893Z,24.46
2023-01-19T22:08:58.370Z,23.85
2023-01-19T22:11:24.817Z,23.25
2023-01-19T22:13:51.206Z,22.82
2023-01-19T22:16:17.603Z,22.88
2023-01-19T22:18:44.051Z,22.05
2023-01-19T22:21:10.473Z,21.85
2023-01-19T22:23:36.858Z,21.70
2023-01-19T22:26:03.259Z,21.33
2023-01-19T22:28:29.673Z,20.94
2023-01-19T22:30:56.167Z,20.45
2023-01-19T22:33:22.644Z,19.43
2023-01-19T22:35:49.051Z,19.17
2023-01-19T22:38:15.449Z,18.75
2023-01-19T22:40:41.840Z,18.78
2023-01-19T22:43:08.243Z,18.18
2023-01-19T22:45:34.629Z,18.36
2023-01-19T22:48:01.029Z,17.23
2023-01-19T22:50:27.444Z,17.19
2023-01-19T22:52:53.841Z,16.88
2023-01-19T22:55:20.218Z,15.85
2023-01-19T22:57:46.603Z,16.25
2023-01-19T23:00:13.012Z,16.08
2023-01-19T23:02:39.414Z,15.68
2023-01-19T23:05:05.817Z,15.85
2023-01-19T23:07:32.218Z,14.72
2023-01-19T23:09:58.625Z,14.54
2023-01-19T23:12:25.028Z,14.45
2023-01-19T23:14:51.432Z,14.39
2023-01-19T23:17:17.841Z,14.21
2023-01-19T23:19:44.231Z,13.60
2023-01-19T23:22:10.623Z,13.01
2023-01-19T23:24:37.024Z,13.91
2023-01-19T23:27:03.421Z,13.85
2023-01-19T23:29:29.797Z,13.07
2023-01-19T23:31:56.196Z,13.45
2023-01-19T23:34:22.587Z,12.36
2023-01-19T23:36:48.960Z,12.19
2023-01-19T23:39:15.359Z,11.86
2023-01-19T23:41:41.770Z,11.92
2023-01-19T23:44:08.203Z,11.36
2023-01-19T23:46:34.637Z,11.40
2023-01-19T23:49:01.057Z,11.56
2023-01-19T23:51:27.478Z,11.25
2023-01-19T23:53:53.856Z,11.41
2023-01-19T23:56:20.402Z,11.24
2023-01-19T23:58:46.807Z,10.94
